Česky Dansk Deutsch English Español Suomi Français Magyar Italiano Nederlands norsk Polski Português svenska Türkçe

 

Het Weer

Jos (Nigeria)

11:00, 19 juni 2016 (GMT)

NWNNE
WE
SWSSE
Home            
Jos Kaduna Zaria Makurdi Kano Bida Gusau Yola Enugu Zinder Bamenda Maradi Mamfe Banyo Goure Garoua Ilorin Maine-Soroa Maiduguri Koundja Sokoto Oshogbo Calabar

Om een weerknop op uw website of weblog te plaatsen, copieer onderstaande code en plak die in uw pagina. In het eerste vakje staat HTML-code, in het tweede vakje UBB-code.


Add to Google

Details

Wind speed:5 bf, 18 kn, 9.3 m/s, 20.7 miles/h, 33.3 km/h
Wind direction:W, 270°
Visibility:Greater than 10000 m, 10 km, 32800 ft, 6.2 miles
Clouds:Aufgelockert bewölkt at 900 ft, 274 m
Temperature:24°C, 75°F
Gefühlte Temperatur:24°C, 76°F
Dew-point:20°C, 68°F
Atmospheric pressure:1019 hPa, 764.3 mmHg, 30.09 inHg, 1.006 atm
Relative humidity:78.4 %
METAR:DNJO 191100Z 27018KT 9999 SCT009 24/20 Q1019

Snelkoppelingen

Actuele weersinformatie van de hele wereld. Voeg locaties toe met het plus (+) symbool. Deze snelkoppelingen kunnen worden toegevoegd aan Google.

Lid van de Technetium groep

website free tracking
StatCounter NetStat W3C Validator

22-04-2018 06:53:58
astro.technetium.be money.technetium.be phote.technetium.be tafeltennistafel.technetium.be www.ligfiets.net